createdAt,value
2018-11-10T00:00:30.955Z,17.60
2018-11-10T00:02:59.272Z,18.13
2018-11-10T00:05:27.600Z,20.23
2018-11-10T00:07:55.942Z,17.73
2018-11-10T00:10:24.244Z,15.50
2018-11-10T00:12:52.540Z,17.40
2018-11-10T00:15:20.870Z,16.03
2018-11-10T00:17:49.200Z,11.77
2018-11-10T00:20:17.506Z,12.47
2018-11-10T00:22:45.815Z,11.27
2018-11-10T00:25:14.732Z,13.27
2018-11-10T00:27:44.261Z,11.70
2018-11-10T00:30:13.844Z,11.13
2018-11-10T00:32:42.717Z,10.07
2018-11-10T00:35:11.015Z,11.60
2018-11-10T00:37:39.336Z,10.83
2018-11-10T00:40:09.197Z,10.93
2018-11-10T00:42:37.543Z,11.17
2018-11-10T00:45:06.524Z,13.50
2018-11-10T00:47:34.864Z,10.97
2018-11-10T00:50:03.357Z,10.27
2018-11-10T00:52:31.696Z,10.10
2018-11-10T00:55:00.016Z,10.87
2018-11-10T00:57:28.364Z,9.73
2018-11-10T00:59:56.665Z,11.20
2018-11-10T01:02:25.244Z,10.20
2018-11-10T01:04:53.537Z,12.13
2018-11-10T01:07:21.878Z,9.87
2018-11-10T01:09:50.164Z,9.93
2018-11-10T01:12:18.486Z,9.67
2018-11-10T01:14:46.789Z,10.63
2018-11-10T01:17:15.109Z,8.67
2018-11-10T01:19:43.414Z,9.90
2018-11-10T01:22:11.734Z,10.30
2018-11-10T01:24:40.031Z,10.20
2018-11-10T01:27:08.354Z,11.27
2018-11-10T01:29:36.664Z,11.80
2018-11-10T01:32:05.591Z,9.97
2018-11-10T01:34:33.872Z,10.60
2018-11-10T01:37:02.187Z,11.37
2018-11-10T01:39:30.501Z,13.77
2018-11-10T01:41:58.820Z,10.73
2018-11-10T01:44:27.133Z,11.30
2018-11-10T01:46:55.461Z,10.87
2018-11-10T01:49:23.743Z,11.67
2018-11-10T01:51:52.085Z,9.63
2018-11-10T01:54:20.386Z,15.10
2018-11-10T01:56:48.687Z,10.90
2018-11-10T01:59:17.010Z,10.37
2018-11-10T02:01:45.293Z,9.87
2018-11-10T02:04:13.634Z,10.50
2018-11-10T02:06:42.013Z,12.47
2018-11-10T02:09:10.845Z,12.00
2018-11-10T02:11:39.309Z,13.67
2018-11-10T02:14:07.976Z,11.80
2018-11-10T02:16:36.277Z,12.13
2018-11-10T02:19:04.929Z,11.50
2018-11-10T02:21:33.233Z,12.00
2018-11-10T02:24:01.554Z,12.00
2018-11-10T02:26:29.896Z,13.30
2018-11-10T02:28:58.309Z,12.70
2018-11-10T02:31:26.604Z,11.43
2018-11-10T02:33:54.940Z,13.07
2018-11-10T02:36:23.253Z,11.47
2018-11-10T02:38:51.622Z,13.03
2018-11-10T02:41:19.962Z,13.03
2018-11-10T02:43:48.286Z,11.30
2018-11-10T02:46:16.589Z,11.83
2018-11-10T02:48:44.908Z,12.47
2018-11-10T02:51:13.202Z,11.00
2018-11-10T02:53:41.529Z,14.87
2018-11-10T02:56:09.826Z,11.93
2018-11-10T02:58:38.178Z,12.27
2018-11-10T03:01:06.505Z,13.00
2018-11-10T03:03:34.820Z,10.67
2018-11-10T03:06:03.138Z,11.60
2018-11-10T03:08:31.456Z,12.73
2018-11-10T03:10:59.748Z,10.93
2018-11-10T03:13:28.441Z,10.93
2018-11-10T03:15:56.750Z,11.40
2018-11-10T03:18:25.077Z,10.17
2018-11-10T03:20:53.384Z,13.63
2018-11-10T03:23:21.700Z,12.07
2018-11-10T03:25:50.006Z,10.97
2018-11-10T03:28:18.330Z,12.47
2018-11-10T03:30:46.632Z,13.37
2018-11-10T03:33:14.957Z,10.40
2018-11-10T03:35:43.254Z,12.50
2018-11-10T03:38:11.602Z,10.73
2018-11-10T03:40:39.919Z,10.23
2018-11-10T03:43:08.244Z,9.97
2018-11-10T03:45:36.540Z,10.23
2018-11-10T03:48:04.934Z,11.20
2018-11-10T03:50:33.238Z,14.27
2018-11-10T03:53:01.560Z,11.30
2018-11-10T03:55:29.860Z,13.30
2018-11-10T03:57:58.184Z,10.13
2018-11-10T04:00:26.480Z,12.47
2018-11-10T04:02:54.776Z,11.40
2018-11-10T04:05:23.106Z,13.53
2018-11-10T04:07:51.410Z,13.00
2018-11-10T04:10:19.738Z,11.80
2018-11-10T04:12:48.043Z,15.10
2018-11-10T04:15:16.378Z,12.80
2018-11-10T04:17:44.680Z,13.27
2018-11-10T04:20:13.022Z,13.60
2018-11-10T04:22:41.340Z,14.33
2018-11-10T04:25:10.849Z,12.97
2018-11-10T04:27:39.160Z,13.33
2018-11-10T04:30:08.711Z,13.63
2018-11-10T04:32:37.369Z,14.70
2018-11-10T04:35:06.332Z,14.33
2018-11-10T04:37:34.644Z,15.83
2018-11-10T04:40:03.006Z,12.90
2018-11-10T04:42:31.356Z,16.30
2018-11-10T04:44:59.671Z,12.47
2018-11-10T04:47:28.000Z,15.10
2018-11-10T04:49:56.524Z,16.20
2018-11-10T04:52:24.671Z,13.93
2018-11-10T04:54:52.992Z,13.00
2018-11-10T04:57:21.297Z,12.30
2018-11-10T04:59:49.673Z,13.50
2018-11-10T05:02:17.964Z,15.43
2018-11-10T05:04:46.287Z,14.83
2018-11-10T05:07:14.588Z,15.03
2018-11-10T05:09:42.918Z,14.80
2018-11-10T05:12:11.232Z,14.47
2018-11-10T05:14:39.552Z,15.93
2018-11-10T05:17:07.850Z,15.93
2018-11-10T05:19:36.168Z,14.77
2018-11-10T05:22:04.484Z,11.90
2018-11-10T05:24:32.813Z,13.97
2018-11-10T05:27:01.142Z,13.57
2018-11-10T05:29:29.472Z,12.67
2018-11-10T05:31:57.772Z,14.03
2018-11-10T05:34:26.085Z,8.70
2018-11-10T05:36:54.380Z,8.27
2018-11-10T05:39:22.706Z,8.27
2018-11-10T05:41:51.000Z,7.80
2018-11-10T05:44:19.319Z,8.60
2018-11-10T05:46:47.616Z,7.27
2018-11-10T05:49:16.208Z,7.03
2018-11-10T05:51:44.496Z,6.87
2018-11-10T05:54:12.817Z,7.10
2018-11-10T05:56:41.126Z,7.70
2018-11-10T05:59:09.566Z,6.43
2018-11-10T06:01:37.904Z,6.27
2018-11-10T06:04:06.221Z,8.00
2018-11-10T06:06:34.597Z,6.50
2018-11-10T06:09:03.038Z,6.43
2018-11-10T06:11:31.912Z,7.23
2018-11-10T06:14:00.227Z,6.27
2018-11-10T06:16:28.526Z,7.60
2018-11-10T06:18:56.871Z,7.93
2018-11-10T06:21:25.156Z,5.53
2018-11-10T06:23:53.476Z,7.27
2018-11-10T06:26:21.793Z,5.40
2018-11-10T06:28:50.126Z,4.90
2018-11-10T06:31:18.439Z,5.40
2018-11-10T06:33:46.770Z,6.10
2018-11-10T06:36:15.162Z,5.50
2018-11-10T06:38:43.489Z,6.27
2018-11-10T06:41:11.819Z,5.97
2018-11-10T06:43:40.133Z,6.50
2018-11-10T06:46:08.428Z,6.47
2018-11-10T06:48:36.734Z,6.00
2018-11-10T06:51:05.060Z,7.13
2018-11-10T06:53:33.394Z,5.83
2018-11-10T06:56:01.704Z,7.30
2018-11-10T06:58:30.030Z,5.90
2018-11-10T07:00:58.338Z,7.07
2018-11-10T07:03:26.760Z,5.77
2018-11-10T07:05:55.034Z,6.50
2018-11-10T07:08:23.365Z,6.67
2018-11-10T07:10:51.690Z,5.53
2018-11-10T07:13:20.028Z,7.33
2018-11-10T07:15:48.490Z,7.93
2018-11-10T07:18:16.914Z,6.40
2018-11-10T07:20:45.152Z,8.43
2018-11-10T07:23:13.494Z,6.30
2018-11-10T07:25:41.818Z,6.43
2018-11-10T07:28:10.178Z,8.13
2018-11-10T07:30:38.468Z,9.93
2018-11-10T07:33:06.773Z,8.70
2018-11-10T07:35:35.192Z,8.60
2018-11-10T07:38:03.476Z,8.90
2018-11-10T07:40:31.822Z,8.33
2018-11-10T07:43:00.145Z,9.03
2018-11-10T07:45:28.464Z,9.57
2018-11-10T07:47:56.765Z,10.10
2018-11-10T07:50:25.084Z,9.60
2018-11-10T07:52:53.404Z,8.17
2018-11-10T07:55:21.732Z,10.07
2018-11-10T07:57:50.048Z,8.70
2018-11-10T08:00:18.908Z,7.80
2018-11-10T08:02:47.217Z,9.33
2018-11-10T08:05:16.069Z,6.63
2018-11-10T08:07:44.737Z,9.00
2018-11-10T08:10:13.859Z,7.07
2018-11-10T08:12:42.162Z,7.23
2018-11-10T08:15:15.162Z,8.53
2018-11-10T08:17:43.490Z,7.47
2018-11-10T08:20:12.386Z,7.90
2018-11-10T08:22:40.740Z,7.30
2018-11-10T08:25:11.480Z,9.27
2018-11-10T08:27:40.874Z,8.13
2018-11-10T08:30:10.918Z,7.30
2018-11-10T08:32:39.378Z,10.60
2018-11-10T08:35:08.901Z,8.87
2018-11-10T08:37:37.197Z,7.60
2018-11-10T08:40:06.923Z,6.50
2018-11-10T08:42:35.232Z,6.73
2018-11-10T08:45:03.668Z,6.30
2018-11-10T08:47:32.001Z,7.77
2018-11-10T08:50:00.331Z,8.07
2018-11-10T08:52:28.634Z,5.73
2018-11-10T08:54:56.963Z,6.20
2018-11-10T08:57:25.318Z,6.13
2018-11-10T08:59:53.597Z,7.33
2018-11-10T09:02:22.286Z,5.63
2018-11-10T09:04:50.645Z,6.83
2018-11-10T09:07:18.980Z,6.13
2018-11-10T09:09:47.397Z,8.53
2018-11-10T09:12:15.653Z,6.80
2018-11-10T09:14:44.046Z,9.70
2018-11-10T09:17:12.377Z,6.70
2018-11-10T09:19:40.712Z,9.10
2018-11-10T09:22:09.912Z,5.90
2018-11-10T09:24:38.277Z,6.97
2018-11-10T09:27:06.654Z,7.13
2018-11-10T09:29:35.242Z,5.77
2018-11-10T09:32:03.633Z,8.03
2018-11-10T09:34:31.985Z,6.33
2018-11-10T09:37:00.386Z,7.77
2018-11-10T09:39:28.764Z,8.97
2018-11-10T09:41:57.145Z,6.07
2018-11-10T09:44:25.492Z,6.13
2018-11-10T09:46:53.818Z,5.70
2018-11-10T09:49:22.177Z,5.30
2018-11-10T09:51:50.508Z,4.97
2018-11-10T09:54:18.819Z,5.53
2018-11-10T09:56:47.197Z,5.33
2018-11-10T09:59:15.553Z,5.73
2018-11-10T10:01:44.098Z,6.97
2018-11-10T10:04:12.234Z,6.80
2018-11-10T10:06:40.651Z,5.60
2018-11-10T10:09:10.029Z,6.27
2018-11-10T10:11:39.144Z,5.87
2018-11-10T10:14:08.324Z,4.57
2018-11-10T10:16:36.829Z,6.37
2018-11-10T10:19:05.508Z,5.80
2018-11-10T10:21:33.877Z,4.30
2018-11-10T10:24:02.548Z,5.63
2018-11-10T10:26:30.978Z,5.33
2018-11-10T10:28:59.402Z,9.33
2018-11-10T10:31:27.845Z,4.30
2018-11-10T10:33:56.305Z,4.50
2018-11-10T10:36:24.716Z,7.27
2018-11-10T10:38:53.079Z,5.27
2018-11-10T10:41:21.469Z,6.43
2018-11-10T10:43:49.837Z,5.57
2018-11-10T10:46:18.365Z,5.50
2018-11-10T10:48:46.819Z,4.60
2018-11-10T10:51:15.138Z,5.37
2018-11-10T10:53:43.650Z,7.90
2018-11-10T10:56:12.134Z,4.53
2018-11-10T10:58:40.473Z,4.63
2018-11-10T11:01:14.180Z,5.23
2018-11-10T11:03:47.840Z,4.77
2018-11-10T11:06:16.243Z,5.47
2018-11-10T11:08:44.624Z,5.97
2018-11-10T11:11:14.051Z,4.67
2018-11-10T11:13:42.460Z,6.57
2018-11-10T11:16:10.890Z,4.67
2018-11-10T11:18:39.314Z,4.90
2018-11-10T11:21:07.667Z,4.07
2018-11-10T11:23:36.157Z,4.80
2018-11-10T11:26:04.809Z,5.83
2018-11-10T11:28:34.390Z,4.33
2018-11-10T11:31:02.749Z,5.03
2018-11-10T11:33:31.134Z,4.13
2018-11-10T11:35:59.576Z,3.80
2018-11-10T11:38:28.507Z,4.00
2018-11-10T11:40:56.925Z,3.73
2018-11-10T11:43:25.215Z,2.90
2018-11-10T11:45:53.528Z,2.80
2018-11-10T11:48:21.868Z,3.40
2018-11-10T11:50:50.168Z,2.80
2018-11-10T11:53:18.493Z,3.17
2018-11-10T11:55:46.804Z,4.47
2018-11-10T11:58:15.182Z,3.13
2018-11-10T12:00:43.447Z,3.70
2018-11-10T12:03:11.858Z,3.33
2018-11-10T12:05:40.156Z,4.00
2018-11-10T12:08:08.503Z,3.67
2018-11-10T12:10:36.808Z,3.57
2018-11-10T12:13:05.192Z,3.17
2018-11-10T12:15:33.524Z,2.50
2018-11-10T12:18:01.948Z,3.30
2018-11-10T12:20:30.294Z,4.87
2018-11-10T12:22:58.645Z,3.60
2018-11-10T12:25:26.948Z,2.07
2018-11-10T12:27:55.285Z,2.43
2018-11-10T12:30:23.588Z,2.90
2018-11-10T12:32:51.946Z,3.70
2018-11-10T12:35:20.240Z,2.67
2018-11-10T12:37:48.566Z,4.33
2018-11-10T12:40:16.873Z,3.87
2018-11-10T12:42:45.201Z,1.70
2018-11-10T12:45:14.316Z,1.83
2018-11-10T12:47:43.219Z,1.87
2018-11-10T12:50:12.821Z,4.17
2018-11-10T12:52:42.460Z,2.50
2018-11-10T12:55:12.196Z,4.30
2018-11-10T12:57:40.836Z,3.37
2018-11-10T13:00:10.222Z,3.27
2018-11-10T13:02:38.558Z,3.10
2018-11-10T13:05:07.692Z,2.90
2018-11-10T13:07:36.289Z,4.40
2018-11-10T13:10:05.020Z,3.87
2018-11-10T13:12:33.322Z,3.60
2018-11-10T13:15:01.642Z,5.53
2018-11-10T13:17:30.083Z,4.33
2018-11-10T13:19:58.350Z,2.47
2018-11-10T13:22:26.658Z,3.90
2018-11-10T13:24:55.008Z,3.60
2018-11-10T13:27:23.314Z,2.83
2018-11-10T13:29:51.670Z,3.73
2018-11-10T13:32:19.981Z,3.73
2018-11-10T13:34:48.297Z,3.63
2018-11-10T13:37:16.612Z,5.07
2018-11-10T13:39:44.940Z,3.93
2018-11-10T13:42:13.322Z,4.37
2018-11-10T13:44:41.713Z,4.00
2018-11-10T13:47:10.007Z,4.10
2018-11-10T13:49:38.338Z,4.03
2018-11-10T13:52:07.177Z,4.77
2018-11-10T13:54:35.541Z,4.67
2018-11-10T13:57:04.782Z,5.57
2018-11-10T13:59:35.058Z,5.87
2018-11-10T14:02:05.525Z,5.00
2018-11-10T14:04:34.866Z,7.97
2018-11-10T14:07:03.204Z,5.63
2018-11-10T14:09:31.529Z,5.37
2018-11-10T14:11:59.820Z,6.57
2018-11-10T14:14:28.156Z,5.07
2018-11-10T14:16:56.455Z,4.83
2018-11-10T14:19:24.776Z,4.87
2018-11-10T14:21:53.079Z,5.10
2018-11-10T14:24:21.492Z,5.20
2018-11-10T14:26:49.780Z,5.57
2018-11-10T14:29:18.100Z,5.73
2018-11-10T14:31:46.408Z,5.87
2018-11-10T14:34:14.732Z,4.47
2018-11-10T14:36:43.024Z,4.63
2018-11-10T14:39:12.026Z,5.07
2018-11-10T14:41:40.339Z,7.50
2018-11-10T14:44:09.243Z,7.10
2018-11-10T14:46:37.964Z,5.57
2018-11-10T14:49:06.426Z,6.00
2018-11-10T14:51:34.762Z,4.07
2018-11-10T14:54:03.124Z,3.80
2018-11-10T14:56:31.430Z,4.40
2018-11-10T14:58:59.802Z,4.23
2018-11-10T15:01:28.109Z,5.10
2018-11-10T15:03:56.473Z,4.20
2018-11-10T15:06:24.782Z,5.60
2018-11-10T15:08:53.140Z,5.07
2018-11-10T15:11:21.443Z,5.43
2018-11-10T15:13:49.770Z,3.60
2018-11-10T15:16:18.060Z,3.70
2018-11-10T15:18:46.400Z,6.00
2018-11-10T15:21:14.696Z,4.37
2018-11-10T15:23:43.059Z,4.73
2018-11-10T15:26:11.437Z,4.07
2018-11-10T15:28:39.806Z,4.10
2018-11-10T15:31:08.162Z,7.57
2018-11-10T15:33:36.513Z,7.00
2018-11-10T15:36:04.931Z,5.30
2018-11-10T15:38:33.282Z,5.50
2018-11-10T15:41:01.586Z,5.03
2018-11-10T15:43:29.950Z,5.33
2018-11-10T15:45:58.256Z,4.87
2018-11-10T15:48:26.596Z,6.03
2018-11-10T15:50:54.927Z,7.33
2018-11-10T15:53:23.458Z,7.40
2018-11-10T15:55:51.762Z,6.27
2018-11-10T15:58:20.127Z,6.47
2018-11-10T16:00:48.432Z,6.00
2018-11-10T16:03:16.818Z,4.40
2018-11-10T16:05:45.112Z,5.37
2018-11-10T16:08:13.414Z,4.60
2018-11-10T16:10:41.748Z,5.47
2018-11-10T16:13:10.056Z,4.87
2018-11-10T16:15:38.389Z,4.53
2018-11-10T16:18:06.680Z,5.50
2018-11-10T16:20:35.067Z,3.67
2018-11-10T16:23:03.393Z,6.70
2018-11-10T16:25:31.729Z,3.13
2018-11-10T16:28:00.031Z,3.33
2018-11-10T16:30:28.370Z,3.00
2018-11-10T16:32:56.656Z,3.30
2018-11-10T16:35:24.988Z,4.27
2018-11-10T16:37:53.300Z,3.87
2018-11-10T16:40:21.678Z,3.40
2018-11-10T16:42:50.406Z,4.47
2018-11-10T16:45:19.645Z,5.00
2018-11-10T16:47:47.945Z,5.13
2018-11-10T16:50:16.342Z,4.87
2018-11-10T16:52:45.253Z,5.33
2018-11-10T16:55:13.726Z,3.27
2018-11-10T16:57:41.945Z,3.37
2018-11-10T17:00:16.140Z,2.77
2018-11-10T17:02:44.432Z,4.50
2018-11-10T17:05:12.793Z,4.20
2018-11-10T17:07:41.088Z,3.50
2018-11-10T17:10:11.823Z,2.53
2018-11-10T17:12:40.369Z,3.27
2018-11-10T17:15:09.101Z,3.87
2018-11-10T17:17:37.624Z,2.97
2018-11-10T17:20:08.018Z,5.97
2018-11-10T17:22:36.691Z,3.73
2018-11-10T17:25:05.496Z,2.83
2018-11-10T17:27:33.838Z,3.30
2018-11-10T17:30:02.243Z,3.03
2018-11-10T17:32:30.545Z,3.63
2018-11-10T17:34:58.902Z,4.37
2018-11-10T17:37:27.200Z,2.97
2018-11-10T17:39:55.706Z,2.80
2018-11-10T17:42:23.877Z,2.50
2018-11-10T17:44:52.248Z,3.50
2018-11-10T17:47:20.565Z,3.17
2018-11-10T17:49:48.904Z,3.23
2018-11-10T17:52:17.295Z,3.10
2018-11-10T17:54:45.590Z,3.50
2018-11-10T17:57:13.882Z,3.70
2018-11-10T17:59:42.228Z,2.57
2018-11-10T18:02:10.655Z,2.70
2018-11-10T18:04:38.944Z,2.83
2018-11-10T18:07:07.334Z,4.43
2018-11-10T18:09:35.689Z,4.33
2018-11-10T18:12:04.138Z,5.87
2018-11-10T18:14:32.461Z,4.67
2018-11-10T18:17:00.769Z,3.27
2018-11-10T18:19:29.144Z,6.37
2018-11-10T18:21:57.468Z,3.13
2018-11-10T18:24:26.562Z,4.57
2018-11-10T18:26:54.889Z,6.37
2018-11-10T18:29:23.257Z,4.13
2018-11-10T18:31:51.572Z,5.80
2018-11-10T18:34:19.965Z,5.30
2018-11-10T18:36:48.269Z,5.77
2018-11-10T18:39:16.674Z,5.03
2018-11-10T18:41:44.954Z,5.87
2018-11-10T18:44:13.298Z,6.47
2018-11-10T18:46:41.610Z,7.93
2018-11-10T18:49:09.970Z,7.47
2018-11-10T18:51:38.306Z,7.10
2018-11-10T18:54:06.682Z,8.10
2018-11-10T18:56:34.981Z,14.00
2018-11-10T18:59:03.329Z,4.23
2018-11-10T19:01:31.629Z,20.73
2018-11-10T19:03:59.982Z,6.20
2018-11-10T19:06:28.344Z,7.43
2018-11-10T19:08:56.645Z,5.87
2018-11-10T19:11:24.953Z,5.07
2018-11-10T19:13:53.349Z,4.67
2018-11-10T19:16:21.649Z,4.53
2018-11-10T19:18:50.005Z,4.23
2018-11-10T19:21:18.305Z,6.43
2018-11-10T19:23:46.648Z,4.90
2018-11-10T19:26:14.953Z,3.83
2018-11-10T19:28:43.402Z,4.73
2018-11-10T19:31:11.849Z,4.53
2018-11-10T19:33:40.157Z,5.47
2018-11-10T19:36:08.486Z,6.60
2018-11-10T19:38:36.809Z,5.63
2018-11-10T19:41:05.570Z,6.10
2018-11-10T19:43:33.882Z,5.90
2018-11-10T19:46:02.237Z,5.10
2018-11-10T19:48:30.569Z,6.50
2018-11-10T19:50:59.030Z,7.00
2018-11-10T19:53:27.270Z,5.80
2018-11-10T19:55:55.584Z,7.60
2018-11-10T19:58:23.888Z,5.70
2018-11-10T20:00:52.221Z,5.70
2018-11-10T20:03:20.543Z,4.83
2018-11-10T20:05:48.992Z,6.67
2018-11-10T20:08:17.288Z,6.60
2018-11-10T20:10:45.768Z,6.87
2018-11-10T20:13:14.078Z,5.80
2018-11-10T20:15:42.448Z,9.37
2018-11-10T20:18:10.762Z,7.03
2018-11-10T20:20:39.108Z,7.27
2018-11-10T20:23:07.410Z,8.90
2018-11-10T20:25:35.752Z,6.53
2018-11-10T20:28:04.090Z,9.87
2018-11-10T20:30:32.456Z,5.83
2018-11-10T20:33:00.803Z,6.63
2018-11-10T20:35:29.112Z,9.33
2018-11-10T20:37:57.408Z,12.90
2018-11-10T20:40:25.772Z,9.60
2018-11-10T20:42:54.068Z,5.80
2018-11-10T20:45:22.578Z,8.73
2018-11-10T20:47:50.868Z,6.93
2018-11-10T20:50:19.658Z,7.53
2018-11-10T20:52:47.956Z,9.23
2018-11-10T20:55:16.488Z,8.23
2018-11-10T20:57:44.828Z,10.73
2018-11-10T21:00:14.964Z,9.93
2018-11-10T21:02:43.665Z,7.43
2018-11-10T21:05:12.616Z,7.70
2018-11-10T21:07:41.016Z,8.77
2018-11-10T21:10:11.839Z,7.50
2018-11-10T21:12:40.614Z,7.60
2018-11-10T21:15:09.589Z,8.40
2018-11-10T21:17:38.245Z,6.17
2018-11-10T21:20:07.779Z,7.03
2018-11-10T21:22:36.066Z,7.03
2018-11-10T21:25:04.575Z,5.43
2018-11-10T21:27:32.914Z,6.27
2018-11-10T21:30:01.298Z,8.20
2018-11-10T21:32:29.556Z,5.43
2018-11-10T21:34:57.904Z,5.33
2018-11-10T21:37:26.220Z,5.60
2018-11-10T21:39:54.525Z,5.70
2018-11-10T21:42:22.914Z,7.87
2018-11-10T21:44:51.235Z,7.10
2018-11-10T21:47:19.677Z,6.43
2018-11-10T21:49:48.058Z,5.77
2018-11-10T21:52:16.350Z,7.13
2018-11-10T21:54:44.657Z,7.47
2018-11-10T21:57:12.984Z,6.00
2018-11-10T21:59:41.330Z,7.67
2018-11-10T22:02:09.632Z,10.80
2018-11-10T22:04:37.956Z,9.73
2018-11-10T22:07:06.288Z,8.00
2018-11-10T22:09:34.879Z,8.47
2018-11-10T22:12:02.986Z,6.57
2018-11-10T22:14:31.313Z,9.10
2018-11-10T22:16:59.657Z,8.67
2018-11-10T22:19:27.968Z,7.37
2018-11-10T22:21:56.276Z,9.47
2018-11-10T22:24:24.596Z,9.20
2018-11-10T22:26:52.905Z,8.53
2018-11-10T22:29:21.268Z,8.20
2018-11-10T22:31:49.575Z,5.07
2018-11-10T22:34:17.875Z,3.90
2018-11-10T22:36:46.233Z,1.87
2018-11-10T22:39:14.537Z,3.10
2018-11-10T22:41:42.869Z,1.23
2018-11-10T22:44:11.188Z,1.23
2018-11-10T22:46:39.539Z,2.47
2018-11-10T22:49:07.840Z,1.00
2018-11-10T22:51:36.157Z,2.27
2018-11-10T22:54:04.685Z,2.33
2018-11-10T22:56:33.016Z,1.27
2018-11-10T22:59:01.308Z,2.50
2018-11-10T23:01:32.471Z,2.33
2018-11-10T23:04:01.033Z,3.83
2018-11-10T23:06:29.350Z,4.83
2018-11-10T23:08:57.713Z,5.27
2018-11-10T23:11:26.481Z,7.23
2018-11-10T23:13:54.781Z,7.63
2018-11-10T23:16:23.113Z,6.87
2018-11-10T23:18:51.408Z,5.30
2018-11-10T23:21:19.734Z,6.13
2018-11-10T23:23:48.029Z,7.17
2018-11-10T23:26:16.357Z,4.60
2018-11-10T23:28:44.654Z,5.50
2018-11-10T23:31:12.971Z,8.20
2018-11-10T23:33:41.285Z,4.67
2018-11-10T23:36:09.612Z,4.57
2018-11-10T23:38:37.914Z,3.30
2018-11-10T23:41:06.246Z,4.13
2018-11-10T23:43:34.549Z,2.90
2018-11-10T23:46:02.870Z,5.13
2018-11-10T23:48:31.179Z,3.33
2018-11-10T23:50:59.499Z,2.23
2018-11-10T23:53:27.796Z,2.70
2018-11-10T23:55:56.148Z,5.33
2018-11-10T23:58:24.448Z,4.20
